sensor_id;sensor_type;location;lat;lon;timestamp;temperature;humidity
12704;DHT22;6416;52.182;7.650;2023-02-12T00:01:30;12.40;68.20
12704;DHT22;6416;52.182;7.650;2023-02-12T00:03:56;12.40;68.30
12704;DHT22;6416;52.182;7.650;2023-02-12T00:06:22;12.40;68.30
12704;DHT22;6416;52.182;7.650;2023-02-12T00:08:52;12.40;68.30
12704;DHT22;6416;52.182;7.650;2023-02-12T00:11:21;12.40;68.40
12704;DHT22;6416;52.182;7.650;2023-02-12T00:13:47;12.40;68.40
12704;DHT22;6416;52.182;7.650;2023-02-12T00:16:15;12.40;68.30
12704;DHT22;6416;52.182;7.650;2023-02-12T00:18:41;12.40;68.40
12704;DHT22;6416;52.182;7.650;2023-02-12T00:21:07;12.40;68.30
12704;DHT22;6416;52.182;7.650;2023-02-12T00:23:33;12.30;68.30
12704;DHT22;6416;52.182;7.650;2023-02-12T00:25:59;12.30;68.30
12704;DHT22;6416;52.182;7.650;2023-02-12T00:28:25;12.30;68.30
12704;DHT22;6416;52.182;7.650;2023-02-12T00:30:51;12.40;68.40
12704;DHT22;6416;52.182;7.650;2023-02-12T00:33:17;12.30;68.30
12704;DHT22;6416;52.182;7.650;2023-02-12T00:35:43;12.30;68.30
12704;DHT22;6416;52.182;7.650;2023-02-12T00:38:08;12.30;68.30
12704;DHT22;6416;52.182;7.650;2023-02-12T00:40:34;12.30;68.30
12704;DHT22;6416;52.182;7.650;2023-02-12T00:42:59;12.30;68.40
12704;DHT22;6416;52.182;7.650;2023-02-12T00:45:25;12.30;68.40
12704;DHT22;6416;52.182;7.650;2023-02-12T00:47:50;12.30;68.40
12704;DHT22;6416;52.182;7.650;2023-02-12T00:50:18;12.30;68.50
12704;DHT22;6416;52.182;7.650;2023-02-12T00:52:44;12.30;68.40
12704;DHT22;6416;52.182;7.650;2023-02-12T00:55:09;12.30;68.50
12704;DHT22;6416;52.182;7.650;2023-02-12T00:57:35;12.30;68.50
12704;DHT22;6416;52.182;7.650;2023-02-12T01:00:00;12.30;68.50
12704;DHT22;6416;52.182;7.650;2023-02-12T01:02:26;12.30;68.50
12704;DHT22;6416;52.182;7.650;2023-02-12T01:04:51;12.30;68.50
12704;DHT22;6416;52.182;7.650;2023-02-12T01:07:17;12.30;68.50
12704;DHT22;6416;52.182;7.650;2023-02-12T01:09:42;12.20;68.40
12704;DHT22;6416;52.182;7.650;2023-02-12T01:12:08;12.20;68.40
12704;DHT22;6416;52.182;7.650;2023-02-12T01:14:33;12.20;68.40
12704;DHT22;6416;52.182;7.650;2023-02-12T01:16:59;12.20;68.40
12704;DHT22;6416;52.182;7.650;2023-02-12T01:19:24;12.20;68.40
12704;DHT22;6416;52.182;7.650;2023-02-12T01:21:50;12.30;68.60
12704;DHT22;6416;52.182;7.650;2023-02-12T01:24:15;12.20;68.40
12704;DHT22;6416;52.182;7.650;2023-02-12T01:26:41;12.20;68.40
12704;DHT22;6416;52.182;7.650;2023-02-12T01:29:07;12.20;68.50
12704;DHT22;6416;52.182;7.650;2023-02-12T01:31:36;12.20;68.50
12704;DHT22;6416;52.182;7.650;2023-02-12T01:34:02;12.20;68.60
12704;DHT22;6416;52.182;7.650;2023-02-12T01:36:29;12.20;68.50
12704;DHT22;6416;52.182;7.650;2023-02-12T01:38:55;12.20;68.60
12704;DHT22;6416;52.182;7.650;2023-02-12T01:41:23;12.20;68.60
12704;DHT22;6416;52.182;7.650;2023-02-12T01:46:45;12.20;69.00
12704;DHT22;6416;52.182;7.650;2023-02-12T01:51:52;12.20;68.70
12704;DHT22;6416;52.182;7.650;2023-02-12T01:54:19;12.20;69.10
12704;DHT22;6416;52.182;7.650;2023-02-12T01:56:46;12.10;68.50
12704;DHT22;6416;52.182;7.650;2023-02-12T01:59:12;12.10;68.50
12704;DHT22;6416;52.182;7.650;2023-02-12T02:01:38;12.10;68.50
12704;DHT22;6416;52.182;7.650;2023-02-12T02:04:11;12.10;68.50
12704;DHT22;6416;52.182;7.650;2023-02-12T02:09:26;12.10;68.60
12704;DHT22;6416;52.182;7.650;2023-02-12T02:11:52;12.10;68.40
12704;DHT22;6416;52.182;7.650;2023-02-12T02:14:18;12.10;68.40
12704;DHT22;6416;52.182;7.650;2023-02-12T02:16:52;12.00;68.30
12704;DHT22;6416;52.182;7.650;2023-02-12T02:19:48;12.00;68.50
12704;DHT22;6416;52.182;7.650;2023-02-12T02:30:54;11.90;68.30
12704;DHT22;6416;52.182;7.650;2023-02-12T02:39:14;11.70;68.30
12704;DHT22;6416;52.182;7.650;2023-02-12T02:44:27;11.70;68.20
12704;DHT22;6416;52.182;7.650;2023-02-12T02:46:54;11.60;68.20
12704;DHT22;6416;52.182;7.650;2023-02-12T02:49:24;11.60;68.10
12704;DHT22;6416;52.182;7.650;2023-02-12T02:51:59;11.60;68.30
12704;DHT22;6416;52.182;7.650;2023-02-12T02:54:39;11.50;68.30
12704;DHT22;6416;52.182;7.650;2023-02-12T02:57:17;11.50;68.60
12704;DHT22;6416;52.182;7.650;2023-02-12T02:59:48;11.50;68.70
12704;DHT22;6416;52.182;7.650;2023-02-12T03:02:26;11.50;68.60
12704;DHT22;6416;52.182;7.650;2023-02-12T03:05:03;11.50;69.00
12704;DHT22;6416;52.182;7.650;2023-02-12T03:07:35;11.50;69.00
12704;DHT22;6416;52.182;7.650;2023-02-12T03:10:11;11.50;68.90
12704;DHT22;6416;52.182;7.650;2023-02-12T03:12:43;11.50;69.10
12704;DHT22;6416;52.182;7.650;2023-02-12T03:15:31;11.50;69.00
12704;DHT22;6416;52.182;7.650;2023-02-12T03:18:00;11.50;69.20
12704;DHT22;6416;52.182;7.650;2023-02-12T03:20:35;11.50;68.90
12704;DHT22;6416;52.182;7.650;2023-02-12T03:23:10;11.50;69.00
12704;DHT22;6416;52.182;7.650;2023-02-12T03:25:57;11.50;69.10
12704;DHT22;6416;52.182;7.650;2023-02-12T03:28:29;11.50;69.30
12704;DHT22;6416;52.182;7.650;2023-02-12T03:34:23;11.50;69.20
12704;DHT22;6416;52.182;7.650;2023-02-12T03:42:19;11.50;69.70
12704;DHT22;6416;52.182;7.650;2023-02-12T03:44:56;11.50;69.00
12704;DHT22;6416;52.182;7.650;2023-02-12T03:50:08;11.50;69.20
12704;DHT22;6416;52.182;7.650;2023-02-12T03:52:35;11.50;69.20
12704;DHT22;6416;52.182;7.650;2023-02-12T03:55:01;11.50;69.10
12704;DHT22;6416;52.182;7.650;2023-02-12T03:57:31;11.50;69.10
12704;DHT22;6416;52.182;7.650;2023-02-12T04:00:03;11.50;69.20
12704;DHT22;6416;52.182;7.650;2023-02-12T04:02:29;11.50;69.20
12704;DHT22;6416;52.182;7.650;2023-02-12T04:04:54;11.50;69.10
12704;DHT22;6416;52.182;7.650;2023-02-12T04:07:20;11.50;69.20
12704;DHT22;6416;52.182;7.650;2023-02-12T04:09:45;11.50;69.20
12704;DHT22;6416;52.182;7.650;2023-02-12T04:18:11;11.60;69.80
12704;DHT22;6416;52.182;7.650;2023-02-12T04:26:04;11.60;69.40
12704;DHT22;6416;52.182;7.650;2023-02-12T04:28:58;11.50;69.20
12704;DHT22;6416;52.182;7.650;2023-02-12T04:34:14;11.60;69.50
12704;DHT22;6416;52.182;7.650;2023-02-12T04:36:59;11.60;69.60
12704;DHT22;6416;52.182;7.650;2023-02-12T04:39:29;11.60;69.40
12704;DHT22;6416;52.182;7.650;2023-02-12T04:42:00;11.50;69.20
12704;DHT22;6416;52.182;7.650;2023-02-12T04:44:29;11.50;69.40
12704;DHT22;6416;52.182;7.650;2023-02-12T04:46:55;11.50;69.20
12704;DHT22;6416;52.182;7.650;2023-02-12T04:49:21;11.50;69.10
12704;DHT22;6416;52.182;7.650;2023-02-12T04:51:47;11.50;69.20
12704;DHT22;6416;52.182;7.650;2023-02-12T04:54:14;11.50;69.30
12704;DHT22;6416;52.182;7.650;2023-02-12T04:56:40;11.50;69.30
12704;DHT22;6416;52.182;7.650;2023-02-12T04:59:05;11.50;69.30
12704;DHT22;6416;52.182;7.650;2023-02-12T05:01:32;11.50;69.40
12704;DHT22;6416;52.182;7.650;2023-02-12T05:03:58;11.50;69.50
12704;DHT22;6416;52.182;7.650;2023-02-12T05:06:23;11.50;69.40
12704;DHT22;6416;52.182;7.650;2023-02-12T05:08:52;11.50;69.50
12704;DHT22;6416;52.182;7.650;2023-02-12T05:11:17;11.50;69.50
12704;DHT22;6416;52.182;7.650;2023-02-12T05:13:43;11.50;69.50
12704;DHT22;6416;52.182;7.650;2023-02-12T05:16:08;11.50;69.50
12704;DHT22;6416;52.182;7.650;2023-02-12T05:18:35;11.50;69.40
12704;DHT22;6416;52.182;7.650;2023-02-12T05:21:02;11.50;69.50
12704;DHT22;6416;52.182;7.650;2023-02-12T05:23:30;11.50;69.50
12704;DHT22;6416;52.182;7.650;2023-02-12T05:26:00;11.50;69.60
12704;DHT22;6416;52.182;7.650;2023-02-12T05:28:26;11.50;69.60
12704;DHT22;6416;52.182;7.650;2023-02-12T05:30:52;11.50;69.50
12704;DHT22;6416;52.182;7.650;2023-02-12T05:33:18;11.50;69.50
12704;DHT22;6416;52.182;7.650;2023-02-12T05:35:43;11.50;69.50
12704;DHT22;6416;52.182;7.650;2023-02-12T05:38:09;11.40;69.40
12704;DHT22;6416;52.182;7.650;2023-02-12T05:40:34;11.50;69.50
12704;DHT22;6416;52.182;7.650;2023-02-12T05:43:00;11.50;69.50
12704;DHT22;6416;52.182;7.650;2023-02-12T05:45:26;11.50;69.50
12704;DHT22;6416;52.182;7.650;2023-02-12T05:47:52;11.40;69.40
12704;DHT22;6416;52.182;7.650;2023-02-12T05:50:17;11.40;69.50
12704;DHT22;6416;52.182;7.650;2023-02-12T05:52:43;11.40;70.20
12704;DHT22;6416;52.182;7.650;2023-02-12T05:55:08;11.40;69.50
12704;DHT22;6416;52.182;7.650;2023-02-12T05:57:34;11.40;69.50
12704;DHT22;6416;52.182;7.650;2023-02-12T05:59:59;11.40;69.50
12704;DHT22;6416;52.182;7.650;2023-02-12T06:02:24;11.40;69.50
12704;DHT22;6416;52.182;7.650;2023-02-12T06:04:50;11.40;69.50
12704;DHT22;6416;52.182;7.650;2023-02-12T06:07:15;11.40;69.50
12704;DHT22;6416;52.182;7.650;2023-02-12T06:09:41;11.40;69.60
12704;DHT22;6416;52.182;7.650;2023-02-12T06:12:06;11.40;69.60
12704;DHT22;6416;52.182;7.650;2023-02-12T06:14:32;11.30;69.60
12704;DHT22;6416;52.182;7.650;2023-02-12T06:16:57;11.40;69.70
12704;DHT22;6416;52.182;7.650;2023-02-12T06:19:23;11.30;69.70
12704;DHT22;6416;52.182;7.650;2023-02-12T06:21:48;11.30;69.70
12704;DHT22;6416;52.182;7.650;2023-02-12T06:24:15;11.40;69.80
12704;DHT22;6416;52.182;7.650;2023-02-12T06:26:41;11.40;69.90
12704;DHT22;6416;52.182;7.650;2023-02-12T06:29:06;11.30;69.90
12704;DHT22;6416;52.182;7.650;2023-02-12T06:31:33;11.40;70.00
12704;DHT22;6416;52.182;7.650;2023-02-12T06:34:01;11.30;69.90
12704;DHT22;6416;52.182;7.650;2023-02-12T06:36:27;11.40;70.00
12704;DHT22;6416;52.182;7.650;2023-02-12T06:38:53;11.30;69.90
12704;DHT22;6416;52.182;7.650;2023-02-12T06:41:20;11.30;69.90
12704;DHT22;6416;52.182;7.650;2023-02-12T06:43:45;11.40;70.00
12704;DHT22;6416;52.182;7.650;2023-02-12T06:46:11;11.40;70.00
12704;DHT22;6416;52.182;7.650;2023-02-12T06:48:37;11.30;70.00
12704;DHT22;6416;52.182;7.650;2023-02-12T06:53:29;11.40;70.00
12704;DHT22;6416;52.182;7.650;2023-02-12T06:55:55;11.40;70.00
12704;DHT22;6416;52.182;7.650;2023-02-12T06:58:20;11.40;70.10
12704;DHT22;6416;52.182;7.650;2023-02-12T07:00:46;11.40;70.10
12704;DHT22;6416;52.182;7.650;2023-02-12T07:03:11;11.40;70.20
12704;DHT22;6416;52.182;7.650;2023-02-12T07:05:40;11.40;70.10
12704;DHT22;6416;52.182;7.650;2023-02-12T07:08:05;11.40;70.20
12704;DHT22;6416;52.182;7.650;2023-02-12T07:10:31;11.40;70.10
12704;DHT22;6416;52.182;7.650;2023-02-12T07:12:56;11.40;70.20
12704;DHT22;6416;52.182;7.650;2023-02-12T07:15:22;11.40;70.10
12704;DHT22;6416;52.182;7.650;2023-02-12T07:17:47;11.40;70.30
12704;DHT22;6416;52.182;7.650;2023-02-12T07:20:13;11.40;70.30
12704;DHT22;6416;52.182;7.650;2023-02-12T07:22:38;11.40;70.20
12704;DHT22;6416;52.182;7.650;2023-02-12T07:25:04;11.40;70.40
12704;DHT22;6416;52.182;7.650;2023-02-12T07:27:29;11.50;70.50
12704;DHT22;6416;52.182;7.650;2023-02-12T07:29:55;11.50;70.50
12704;DHT22;6416;52.182;7.650;2023-02-12T07:32:20;11.50;70.50
12704;DHT22;6416;52.182;7.650;2023-02-12T07:34:46;11.50;70.40
12704;DHT22;6416;52.182;7.650;2023-02-12T07:37:11;11.50;70.40
12704;DHT22;6416;52.182;7.650;2023-02-12T07:39:37;11.50;70.40
12704;DHT22;6416;52.182;7.650;2023-02-12T07:42:02;11.60;70.50
12704;DHT22;6416;52.182;7.650;2023-02-12T07:44:28;11.60;70.50
12704;DHT22;6416;52.182;7.650;2023-02-12T07:46:53;11.60;70.50
12704;DHT22;6416;52.182;7.650;2023-02-12T07:49:22;11.60;70.50
12704;DHT22;6416;52.182;7.650;2023-02-12T07:51:48;11.60;70.60
12704;DHT22;6416;52.182;7.650;2023-02-12T07:54:14;11.70;70.70
12704;DHT22;6416;52.182;7.650;2023-02-12T07:56:41;11.60;70.60
12704;DHT22;6416;52.182;7.650;2023-02-12T07:59:10;11.60;70.60
12704;DHT22;6416;52.182;7.650;2023-02-12T08:01:41;11.70;70.70
12704;DHT22;6416;52.182;7.650;2023-02-12T08:04:09;11.70;70.70
12704;DHT22;6416;52.182;7.650;2023-02-12T08:06:37;11.70;70.70
12704;DHT22;6416;52.182;7.650;2023-02-12T08:09:05;11.70;70.60
12704;DHT22;6416;52.182;7.650;2023-02-12T08:11:31;11.70;70.60
12704;DHT22;6416;52.182;7.650;2023-02-12T08:13:57;11.80;70.70
12704;DHT22;6416;52.182;7.650;2023-02-12T08:16:24;11.80;70.60
12704;DHT22;6416;52.182;7.650;2023-02-12T08:18:50;11.80;70.60
12704;DHT22;6416;52.182;7.650;2023-02-12T08:21:18;11.80;70.50
12704;DHT22;6416;52.182;7.650;2023-02-12T08:23:45;11.80;70.60
12704;DHT22;6416;52.182;7.650;2023-02-12T08:26:13;11.80;71.30
12704;DHT22;6416;52.182;7.650;2023-02-12T08:28:42;11.80;70.60
12704;DHT22;6416;52.182;7.650;2023-02-12T08:31:17;11.80;70.60
12704;DHT22;6416;52.182;7.650;2023-02-12T08:33:47;11.90;70.70
12704;DHT22;6416;52.182;7.650;2023-02-12T08:36:16;11.90;70.70
12704;DHT22;6416;52.182;7.650;2023-02-12T08:38:43;11.90;70.70
12704;DHT22;6416;52.182;7.650;2023-02-12T08:41:11;11.90;70.70
12704;DHT22;6416;52.182;7.650;2023-02-12T08:43:40;12.00;70.90
12704;DHT22;6416;52.182;7.650;2023-02-12T08:46:08;12.00;71.00
12704;DHT22;6416;52.182;7.650;2023-02-12T08:48:34;12.00;71.10
12704;DHT22;6416;52.182;7.650;2023-02-12T08:51:15;12.00;71.10
12704;DHT22;6416;52.182;7.650;2023-02-12T08:53:43;12.10;71.60
12704;DHT22;6416;52.182;7.650;2023-02-12T08:56:11;12.20;71.40
12704;DHT22;6416;52.182;7.650;2023-02-12T08:58:37;12.10;71.30
12704;DHT22;6416;52.182;7.650;2023-02-12T09:01:04;12.20;71.40
12704;DHT22;6416;52.182;7.650;2023-02-12T09:03:33;12.20;71.60
12704;DHT22;6416;52.182;7.650;2023-02-12T09:06:01;12.20;71.50
12704;DHT22;6416;52.182;7.650;2023-02-12T09:08:27;12.30;71.70
12704;DHT22;6416;52.182;7.650;2023-02-12T09:10:52;12.30;71.60
12704;DHT22;6416;52.182;7.650;2023-02-12T09:13:18;12.30;71.60
12704;DHT22;6416;52.182;7.650;2023-02-12T09:15:44;12.40;71.70
12704;DHT22;6416;52.182;7.650;2023-02-12T09:18:11;12.40;71.70
12704;DHT22;6416;52.182;7.650;2023-02-12T09:20:40;12.40;71.80
12704;DHT22;6416;52.182;7.650;2023-02-12T09:23:06;12.50;71.90
12704;DHT22;6416;52.182;7.650;2023-02-12T09:25:32;12.40;71.90
12704;DHT22;6416;52.182;7.650;2023-02-12T09:27:57;12.50;72.00
12704;DHT22;6416;52.182;7.650;2023-02-12T09:30:23;12.50;71.90
12704;DHT22;6416;52.182;7.650;2023-02-12T09:32:48;12.50;71.90
12704;DHT22;6416;52.182;7.650;2023-02-12T09:35:14;12.60;72.00
12704;DHT22;6416;52.182;7.650;2023-02-12T09:37:39;12.60;72.00
12704;DHT22;6416;52.182;7.650;2023-02-12T09:40:06;12.60;72.30
12704;DHT22;6416;52.182;7.650;2023-02-12T09:42:51;12.70;72.70
12704;DHT22;6416;52.182;7.650;2023-02-12T09:45:21;12.80;73.30
12704;DHT22;6416;52.182;7.650;2023-02-12T09:47:54;12.90;73.50
12704;DHT22;6416;52.182;7.650;2023-02-12T09:50:33;13.00;73.90
12704;DHT22;6416;52.182;7.650;2023-02-12T09:53:00;13.20;74.10
12704;DHT22;6416;52.182;7.650;2023-02-12T09:55:31;13.40;74.70
12704;DHT22;6416;52.182;7.650;2023-02-12T09:57:59;13.60;74.70
12704;DHT22;6416;52.182;7.650;2023-02-12T10:00:28;13.80;75.00
12704;DHT22;6416;52.182;7.650;2023-02-12T10:02:54;14.00;75.30
12704;DHT22;6416;52.182;7.650;2023-02-12T10:05:26;14.40;76.00
12704;DHT22;6416;52.182;7.650;2023-02-12T10:13:09;15.50;76.70
12704;DHT22;6416;52.182;7.650;2023-02-12T10:21:44;17.30;79.80
12704;DHT22;6416;52.182;7.650;2023-02-12T10:26:31;18.60;74.80
12704;DHT22;6416;52.182;7.650;2023-02-12T10:29:26;19.00;73.30
12704;DHT22;6416;52.182;7.650;2023-02-12T10:31:59;19.30;70.10
12704;DHT22;6416;52.182;7.650;2023-02-12T10:34:31;19.50;70.30
12704;DHT22;6416;52.182;7.650;2023-02-12T10:39:46;19.60;66.70
12704;DHT22;6416;52.182;7.650;2023-02-12T10:42:18;19.70;68.30
12704;DHT22;6416;52.182;7.650;2023-02-12T10:44:46;19.80;67.40
12704;DHT22;6416;52.182;7.650;2023-02-12T10:47:19;19.80;67.30
12704;DHT22;6416;52.182;7.650;2023-02-12T10:49:47;19.80;65.80
12704;DHT22;6416;52.182;7.650;2023-02-12T10:52:44;19.70;65.10
12704;DHT22;6416;52.182;7.650;2023-02-12T10:55:32;19.60;63.60
12704;DHT22;6416;52.182;7.650;2023-02-12T10:57:59;19.40;62.40
12704;DHT22;6416;52.182;7.650;2023-02-12T11:00:26;19.20;63.80
12704;DHT22;6416;52.182;7.650;2023-02-12T11:05:39;18.90;62.10
12704;DHT22;6416;52.182;7.650;2023-02-12T11:08:05;18.80;64.10
12704;DHT22;6416;52.182;7.650;2023-02-12T11:10:40;18.60;63.50
12704;DHT22;6416;52.182;7.650;2023-02-12T11:13:22;18.60;62.70
12704;DHT22;6416;52.182;7.650;2023-02-12T11:15:48;18.50;62.60
12704;DHT22;6416;52.182;7.650;2023-02-12T11:18:29;18.40;63.50
12704;DHT22;6416;52.182;7.650;2023-02-12T11:23:31;18.20;62.60
12704;DHT22;6416;52.182;7.650;2023-02-12T11:29:00;18.10;62.50
12704;DHT22;6416;52.182;7.650;2023-02-12T11:31:28;18.10;62.70
12704;DHT22;6416;52.182;7.650;2023-02-12T11:34:17;18.10;63.60
12704;DHT22;6416;52.182;7.650;2023-02-12T11:36:51;18.00;62.00
12704;DHT22;6416;52.182;7.650;2023-02-12T11:39:21;18.00;62.80
12704;DHT22;6416;52.182;7.650;2023-02-12T11:41:56;18.00;63.30
12704;DHT22;6416;52.182;7.650;2023-02-12T11:44:28;17.90;62.70
12704;DHT22;6416;52.182;7.650;2023-02-12T11:47:00;18.00;63.20
12704;DHT22;6416;52.182;7.650;2023-02-12T11:49:31;18.00;63.40
12704;DHT22;6416;52.182;7.650;2023-02-12T11:52:00;18.00;63.10
12704;DHT22;6416;52.182;7.650;2023-02-12T11:54:28;18.10;63.30
12704;DHT22;6416;52.182;7.650;2023-02-12T11:56:55;18.10;63.60
12704;DHT22;6416;52.182;7.650;2023-02-12T11:59:34;18.20;63.80
12704;DHT22;6416;52.182;7.650;2023-02-12T12:02:17;18.20;62.50
12704;DHT22;6416;52.182;7.650;2023-02-12T12:04:45;18.30;63.50
12704;DHT22;6416;52.182;7.650;2023-02-12T12:07:18;18.50;64.10
12704;DHT22;6416;52.182;7.650;2023-02-12T12:09:50;18.70;64.30
12704;DHT22;6416;52.182;7.650;2023-02-12T12:12:43;19.00;65.50
12704;DHT22;6416;52.182;7.650;2023-02-12T12:15:26;19.50;66.40
12704;DHT22;6416;52.182;7.650;2023-02-12T12:18:03;20.00;65.40
12704;DHT22;6416;52.182;7.650;2023-02-12T12:20:55;20.60;66.90
12704;DHT22;6416;52.182;7.650;2023-02-12T12:23:33;21.40;67.00
12704;DHT22;6416;52.182;7.650;2023-02-12T12:26:06;22.00;65.90
12704;DHT22;6416;52.182;7.650;2023-02-12T12:28:43;22.60;66.70
12704;DHT22;6416;52.182;7.650;2023-02-12T12:31:19;23.30;65.00
12704;DHT22;6416;52.182;7.650;2023-02-12T12:39:00;24.90;60.90
12704;DHT22;6416;52.182;7.650;2023-02-12T12:55:14;24.20;54.50
12704;DHT22;6416;52.182;7.650;2023-02-12T13:03:24;23.70;54.60
12704;DHT22;6416;52.182;7.650;2023-02-12T13:06:05;23.50;52.80
12704;DHT22;6416;52.182;7.650;2023-02-12T13:08:51;23.10;53.30
12704;DHT22;6416;52.182;7.650;2023-02-12T13:14:46;22.50;52.30
12704;DHT22;6416;52.182;7.650;2023-02-12T13:19:51;22.00;53.00
12704;DHT22;6416;52.182;7.650;2023-02-12T13:22:26;21.70;53.20
12704;DHT22;6416;52.182;7.650;2023-02-12T13:28:01;21.20;53.00
12704;DHT22;6416;52.182;7.650;2023-02-12T13:30:41;21.10;53.90
12704;DHT22;6416;52.182;7.650;2023-02-12T13:35:45;20.70;53.40
12704;DHT22;6416;52.182;7.650;2023-02-12T13:38:20;20.60;53.80
12704;DHT22;6416;52.182;7.650;2023-02-12T13:40:47;20.40;53.40
12704;DHT22;6416;52.182;7.650;2023-02-12T13:56:58;19.70;53.20
12704;DHT22;6416;52.182;7.650;2023-02-12T14:01:57;19.50;53.70
12704;DHT22;6416;52.182;7.650;2023-02-12T14:04:28;19.40;54.10
12704;DHT22;6416;52.182;7.650;2023-02-12T14:07:04;19.30;53.90
12704;DHT22;6416;52.182;7.650;2023-02-12T14:14:50;19.00;54.10
12704;DHT22;6416;52.182;7.650;2023-02-12T14:33:50;18.30;53.90
12704;DHT22;6416;52.182;7.650;2023-02-12T14:36:36;18.30;54.10
12704;DHT22;6416;52.182;7.650;2023-02-12T14:39:26;18.10;53.80
12704;DHT22;6416;52.182;7.650;2023-02-12T14:47:04;17.80;54.60
12704;DHT22;6416;52.182;7.650;2023-02-12T14:49:47;17.80;54.50
12704;DHT22;6416;52.182;7.650;2023-02-12T14:52:21;17.70;54.60
12704;DHT22;6416;52.182;7.650;2023-02-12T14:54:59;17.70;54.50
12704;DHT22;6416;52.182;7.650;2023-02-12T15:02:31;17.50;54.70
12704;DHT22;6416;52.182;7.650;2023-02-12T15:05:15;17.40;54.80
12704;DHT22;6416;52.182;7.650;2023-02-12T15:07:47;17.40;54.60
12704;DHT22;6416;52.182;7.650;2023-02-12T15:10:19;17.30;55.00
12704;DHT22;6416;52.182;7.650;2023-02-12T15:13:04;17.20;54.80
12704;DHT22;6416;52.182;7.650;2023-02-12T15:15:44;17.20;55.00
12704;DHT22;6416;52.182;7.650;2023-02-12T15:18:28;17.10;54.90
12704;DHT22;6416;52.182;7.650;2023-02-12T15:26:05;17.00;55.30
12704;DHT22;6416;52.182;7.650;2023-02-12T15:28:33;16.90;55.40
12704;DHT22;6416;52.182;7.650;2023-02-12T15:31:01;16.90;55.50
12704;DHT22;6416;52.182;7.650;2023-02-12T15:33:30;16.80;55.50
12704;DHT22;6416;52.182;7.650;2023-02-12T15:35:56;16.80;55.60
12704;DHT22;6416;52.182;7.650;2023-02-12T15:38:31;16.80;55.70
12704;DHT22;6416;52.182;7.650;2023-02-12T15:40:59;16.70;55.60
12704;DHT22;6416;52.182;7.650;2023-02-12T15:43:27;16.70;55.70
12704;DHT22;6416;52.182;7.650;2023-02-12T15:45:53;16.70;55.70
12704;DHT22;6416;52.182;7.650;2023-02-12T15:48:21;16.60;55.60
12704;DHT22;6416;52.182;7.650;2023-02-12T15:51:00;16.60;55.70
12704;DHT22;6416;52.182;7.650;2023-02-12T15:53:27;16.60;55.70
12704;DHT22;6416;52.182;7.650;2023-02-12T15:55:53;16.50;55.80
12704;DHT22;6416;52.182;7.650;2023-02-12T15:58:24;16.50;55.80
12704;DHT22;6416;52.182;7.650;2023-02-12T16:00:52;16.40;55.70
12704;DHT22;6416;52.182;7.650;2023-02-12T16:03:47;16.50;55.90
12704;DHT22;6416;52.182;7.650;2023-02-12T16:06:14;16.40;55.60
12704;DHT22;6416;52.182;7.650;2023-02-12T16:08:42;16.40;55.90
12704;DHT22;6416;52.182;7.650;2023-02-12T16:11:09;16.30;55.90
12704;DHT22;6416;52.182;7.650;2023-02-12T16:13:35;16.20;55.80
12704;DHT22;6416;52.182;7.650;2023-02-12T16:18:35;16.20;55.90
12704;DHT22;6416;52.182;7.650;2023-02-12T16:21:13;16.20;55.90
12704;DHT22;6416;52.182;7.650;2023-02-12T16:23:42;16.10;56.00
12704;DHT22;6416;52.182;7.650;2023-02-12T16:26:14;16.10;56.00
12704;DHT22;6416;52.182;7.650;2023-02-12T16:28:45;16.00;56.00
12704;DHT22;6416;52.182;7.650;2023-02-12T16:31:13;16.00;56.10
12704;DHT22;6416;52.182;7.650;2023-02-12T16:41:19;15.90;56.70
12704;DHT22;6416;52.182;7.650;2023-02-12T16:44:35;15.90;56.80
12704;DHT22;6416;52.182;7.650;2023-02-12T16:46:50;15.80;56.80
12704;DHT22;6416;52.182;7.650;2023-02-12T16:49:20;15.80;56.90
12704;DHT22;6416;52.182;7.650;2023-02-12T16:51:47;15.80;56.90
12704;DHT22;6416;52.182;7.650;2023-02-12T16:54:28;15.80;57.00
12704;DHT22;6416;52.182;7.650;2023-02-12T16:56:54;15.80;57.40
12704;DHT22;6416;52.182;7.650;2023-02-12T16:59:20;15.80;57.50
12704;DHT22;6416;52.182;7.650;2023-02-12T17:02:03;15.70;57.40
12704;DHT22;6416;52.182;7.650;2023-02-12T17:04:30;15.70;57.90
12704;DHT22;6416;52.182;7.650;2023-02-12T17:06:56;15.70;57.60
12704;DHT22;6416;52.182;7.650;2023-02-12T17:09:22;15.70;57.60
12704;DHT22;6416;52.182;7.650;2023-02-12T17:11:48;15.60;58.20
12704;DHT22;6416;52.182;7.650;2023-02-12T17:14:16;15.60;58.20
12704;DHT22;6416;52.182;7.650;2023-02-12T17:16:41;15.60;57.60
12704;DHT22;6416;52.182;7.650;2023-02-12T17:19:07;15.60;57.50
12704;DHT22;6416;52.182;7.650;2023-02-12T17:21:35;15.50;57.30
12704;DHT22;6416;52.182;7.650;2023-02-12T17:24:01;15.50;57.40
12704;DHT22;6416;52.182;7.650;2023-02-12T17:26:27;15.50;57.50
12704;DHT22;6416;52.182;7.650;2023-02-12T17:28:52;15.40;57.50
12704;DHT22;6416;52.182;7.650;2023-02-12T17:31:18;15.40;57.50
12704;DHT22;6416;52.182;7.650;2023-02-12T17:33:43;15.40;57.50
12704;DHT22;6416;52.182;7.650;2023-02-12T17:36:10;15.40;57.50
12704;DHT22;6416;52.182;7.650;2023-02-12T17:38:36;15.40;57.60
12704;DHT22;6416;52.182;7.650;2023-02-12T17:41:01;15.30;57.50
12704;DHT22;6416;52.182;7.650;2023-02-12T17:43:27;15.30;57.70
12704;DHT22;6416;52.182;7.650;2023-02-12T17:45:52;15.30;57.80
12704;DHT22;6416;52.182;7.650;2023-02-12T17:48:18;15.30;57.90
12704;DHT22;6416;52.182;7.650;2023-02-12T17:50:43;15.30;57.90
12704;DHT22;6416;52.182;7.650;2023-02-12T17:53:09;15.20;57.90
12704;DHT22;6416;52.182;7.650;2023-02-12T17:55:39;15.20;57.90
12704;DHT22;6416;52.182;7.650;2023-02-12T17:58:05;15.20;58.00
12704;DHT22;6416;52.182;7.650;2023-02-12T18:00:31;15.10;57.90
12704;DHT22;6416;52.182;7.650;2023-02-12T18:02:56;15.10;58.00
12704;DHT22;6416;52.182;7.650;2023-02-12T18:05:22;15.10;58.10
12704;DHT22;6416;52.182;7.650;2023-02-12T18:07:47;15.10;58.10
12704;DHT22;6416;52.182;7.650;2023-02-12T18:10:13;15.10;58.10
12704;DHT22;6416;52.182;7.650;2023-02-12T18:12:39;15.00;58.10
12704;DHT22;6416;52.182;7.650;2023-02-12T18:15:06;15.00;58.20
12704;DHT22;6416;52.182;7.650;2023-02-12T18:17:32;15.00;58.20
12704;DHT22;6416;52.182;7.650;2023-02-12T18:19:58;15.00;58.20
12704;DHT22;6416;52.182;7.650;2023-02-12T18:22:23;15.00;58.30
12704;DHT22;6416;52.182;7.650;2023-02-12T18:24:49;14.90;58.30
12704;DHT22;6416;52.182;7.650;2023-02-12T18:27:15;14.90;58.30
12704;DHT22;6416;52.182;7.650;2023-02-12T18:29:40;14.90;58.40
12704;DHT22;6416;52.182;7.650;2023-02-12T18:32:06;14.90;58.40
12704;DHT22;6416;52.182;7.650;2023-02-12T18:34:32;14.90;58.40
12704;DHT22;6416;52.182;7.650;2023-02-12T18:36:58;14.80;58.30
12704;DHT22;6416;52.182;7.650;2023-02-12T18:39:23;14.80;58.40
12704;DHT22;6416;52.182;7.650;2023-02-12T18:41:49;14.80;58.40
12704;DHT22;6416;52.182;7.650;2023-02-12T18:44:14;14.80;58.50
12704;DHT22;6416;52.182;7.650;2023-02-12T18:46:40;14.70;58.50
12704;DHT22;6416;52.182;7.650;2023-02-12T18:49:06;14.70;58.50
12704;DHT22;6416;52.182;7.650;2023-02-12T18:51:33;14.70;58.60
12704;DHT22;6416;52.182;7.650;2023-02-12T18:54:00;14.60;58.60
12704;DHT22;6416;52.182;7.650;2023-02-12T18:56:27;14.70;58.70